sensor_id;sensor_type;location;lat;lon;timestamp;P1;durP1;ratioP1;P2;durP2;ratioP2
7338;SDS011;33747;49.524;8.390;2023-11-19T00:00:18;5.82;;;2.50;;
7338;SDS011;33747;49.524;8.390;2023-11-19T00:02:43;7.00;;;2.50;;
7338;SDS011;33747;49.524;8.390;2023-11-19T00:05:09;2.78;;;2.10;;
7338;SDS011;33747;49.524;8.390;2023-11-19T00:07:36;2.92;;;2.15;;
7338;SDS011;33747;49.524;8.390;2023-11-19T00:10:02;2.50;;;2.10;;
7338;SDS011;33747;49.524;8.390;2023-11-19T00:12:32;5.05;;;2.38;;
7338;SDS011;33747;49.524;8.390;2023-11-19T00:14:57;3.47;;;2.00;;
7338;SDS011;33747;49.524;8.390;2023-11-19T00:17:22;3.17;;;2.05;;
7338;SDS011;33747;49.524;8.390;2023-11-19T00:19:48;1.85;;;1.75;;
7338;SDS011;33747;49.524;8.390;2023-11-19T00:22:16;5.30;;;2.10;;
7338;SDS011;33747;49.524;8.390;2023-11-19T00:24:41;6.28;;;2.38;;
7338;SDS011;33747;49.524;8.390;2023-11-19T00:27:07;2.58;;;1.52;;
7338;SDS011;33747;49.524;8.390;2023-11-19T00:29:32;1.60;;;1.50;;
7338;SDS011;33747;49.524;8.390;2023-11-19T00:31:58;2.97;;;1.60;;
7338;SDS011;33747;49.524;8.390;2023-11-19T00:34:23;4.47;;;1.95;;
7338;SDS011;33747;49.524;8.390;2023-11-19T00:36:49;1.35;;;1.33;;
7338;SDS011;33747;49.524;8.390;2023-11-19T00:39:14;1.83;;;1.60;;
7338;SDS011;33747;49.524;8.390;2023-11-19T00:41:40;1.88;;;1.63;;
7338;SDS011;33747;49.524;8.390;2023-11-19T00:44:06;1.45;;;1.35;;
7338;SDS011;33747;49.524;8.390;2023-11-19T00:46:31;4.53;;;1.60;;
7338;SDS011;33747;49.524;8.390;2023-11-19T00:48:57;4.53;;;1.27;;
7338;SDS011;33747;49.524;8.390;2023-11-19T00:51:24;2.53;;;1.50;;
7338;SDS011;33747;49.524;8.390;2023-11-19T00:53:51;2.85;;;1.48;;
7338;SDS011;33747;49.524;8.390;2023-11-19T00:56:17;1.40;;;1.30;;
7338;SDS011;33747;49.524;8.390;2023-11-19T00:58:44;1.45;;;1.10;;
7338;SDS011;33747;49.524;8.390;2023-11-19T01:01:11;2.67;;;1.50;;
7338;SDS011;33747;49.524;8.390;2023-11-19T01:03:36;3.00;;;1.20;;
7338;SDS011;33747;49.524;8.390;2023-11-19T01:06:02;2.38;;;1.40;;
7338;SDS011;33747;49.524;8.390;2023-11-19T01:08:27;1.65;;;1.20;;
7338;SDS011;33747;49.524;8.390;2023-11-19T01:10:53;1.75;;;0.80;;
7338;SDS011;33747;49.524;8.390;2023-11-19T01:13:18;1.33;;;1.20;;
7338;SDS011;33747;49.524;8.390;2023-11-19T01:15:44;2.47;;;1.30;;
7338;SDS011;33747;49.524;8.390;2023-11-19T01:18:09;1.75;;;1.05;;
7338;SDS011;33747;49.524;8.390;2023-11-19T01:20:34;1.00;;;1.00;;
7338;SDS011;33747;49.524;8.390;2023-11-19T01:23:00;0.82;;;0.82;;
7338;SDS011;33747;49.524;8.390;2023-11-19T01:25:25;0.98;;;0.80;;
7338;SDS011;33747;49.524;8.390;2023-11-19T01:27:50;1.17;;;0.75;;
7338;SDS011;33747;49.524;8.390;2023-11-19T01:30:16;1.17;;;0.73;;
7338;SDS011;33747;49.524;8.390;2023-11-19T01:32:41;0.63;;;0.52;;
7338;SDS011;33747;49.524;8.390;2023-11-19T01:35:07;3.50;;;0.60;;
7338;SDS011;33747;49.524;8.390;2023-11-19T01:37:33;1.88;;;0.60;;
7338;SDS011;33747;49.524;8.390;2023-11-19T01:39:59;1.20;;;0.60;;
7338;SDS011;33747;49.524;8.390;2023-11-19T01:42:25;0.93;;;0.63;;
7338;SDS011;33747;49.524;8.390;2023-11-19T01:45:00;0.85;;;0.65;;
7338;SDS011;33747;49.524;8.390;2023-11-19T01:47:26;2.47;;;0.50;;
7338;SDS011;33747;49.524;8.390;2023-11-19T01:49:52;0.60;;;0.60;;
7338;SDS011;33747;49.524;8.390;2023-11-19T01:52:18;0.50;;;0.40;;
7338;SDS011;33747;49.524;8.390;2023-11-19T01:54:43;0.60;;;0.60;;
7338;SDS011;33747;49.524;8.390;2023-11-19T01:57:10;0.47;;;0.47;;
7338;SDS011;33747;49.524;8.390;2023-11-19T01:59:35;0.50;;;0.50;;
7338;SDS011;33747;49.524;8.390;2023-11-19T02:02:01;2.85;;;0.60;;
7338;SDS011;33747;49.524;8.390;2023-11-19T02:04:26;2.58;;;0.55;;
7338;SDS011;33747;49.524;8.390;2023-11-19T02:06:52;1.25;;;0.70;;
7338;SDS011;33747;49.524;8.390;2023-11-19T02:09:19;0.95;;;0.50;;
7338;SDS011;33747;49.524;8.390;2023-11-19T02:11:44;1.25;;;0.73;;
7338;SDS011;33747;49.524;8.390;2023-11-19T02:14:13;0.60;;;0.60;;
7338;SDS011;33747;49.524;8.390;2023-11-19T02:16:39;0.85;;;0.50;;
7338;SDS011;33747;49.524;8.390;2023-11-19T02:19:04;0.50;;;0.50;;
7338;SDS011;33747;49.524;8.390;2023-11-19T02:21:31;0.65;;;0.65;;
7338;SDS011;33747;49.524;8.390;2023-11-19T02:23:56;1.08;;;0.60;;
7338;SDS011;33747;49.524;8.390;2023-11-19T02:29:21;0.70;;;0.55;;
7338;SDS011;33747;49.524;8.390;2023-11-19T02:31:47;1.13;;;0.47;;
7338;SDS011;33747;49.524;8.390;2023-11-19T02:34:12;0.45;;;0.40;;
7338;SDS011;33747;49.524;8.390;2023-11-19T02:36:38;0.40;;;0.40;;
7338;SDS011;33747;49.524;8.390;2023-11-19T02:39:03;0.50;;;0.40;;
7338;SDS011;33747;49.524;8.390;2023-11-19T02:41:28;0.57;;;0.55;;
7338;SDS011;33747;49.524;8.390;2023-11-19T02:43:54;2.85;;;0.40;;
7338;SDS011;33747;49.524;8.390;2023-11-19T02:46:19;1.05;;;0.47;;
7338;SDS011;33747;49.524;8.390;2023-11-19T02:48:45;0.52;;;0.35;;
7338;SDS011;33747;49.524;8.390;2023-11-19T02:51:11;0.50;;;0.50;;
7338;SDS011;33747;49.524;8.390;2023-11-19T02:53:36;0.55;;;0.55;;
7338;SDS011;33747;49.524;8.390;2023-11-19T02:56:05;1.25;;;0.50;;
7338;SDS011;33747;49.524;8.390;2023-11-19T02:58:37;0.47;;;0.47;;
7338;SDS011;33747;49.524;8.390;2023-11-19T03:01:02;0.52;;;0.52;;
7338;SDS011;33747;49.524;8.390;2023-11-19T03:03:37;2.30;;;0.50;;
7338;SDS011;33747;49.524;8.390;2023-11-19T03:06:05;0.85;;;0.50;;
7338;SDS011;33747;49.524;8.390;2023-11-19T03:08:31;0.43;;;0.43;;
7338;SDS011;33747;49.524;8.390;2023-11-19T03:10:56;1.15;;;0.43;;
7338;SDS011;33747;49.524;8.390;2023-11-19T03:13:22;0.60;;;0.60;;
7338;SDS011;33747;49.524;8.390;2023-11-19T03:15:47;0.50;;;0.50;;
7338;SDS011;33747;49.524;8.390;2023-11-19T03:18:12;0.50;;;0.50;;
7338;SDS011;33747;49.524;8.390;2023-11-19T03:20:38;1.85;;;0.70;;
7338;SDS011;33747;49.524;8.390;2023-11-19T03:23:03;0.98;;;0.88;;
7338;SDS011;33747;49.524;8.390;2023-11-19T03:25:29;0.30;;;0.30;;
7338;SDS011;33747;49.524;8.390;2023-11-19T03:28:01;0.52;;;0.52;;
7338;SDS011;33747;49.524;8.390;2023-11-19T03:30:28;2.05;;;0.55;;
7338;SDS011;33747;49.524;8.390;2023-11-19T03:32:53;1.65;;;0.40;;
7338;SDS011;33747;49.524;8.390;2023-11-19T03:35:19;1.02;;;0.55;;
7338;SDS011;33747;49.524;8.390;2023-11-19T03:37:45;0.50;;;0.50;;
7338;SDS011;33747;49.524;8.390;2023-11-19T03:40:11;0.50;;;0.50;;
7338;SDS011;33747;49.524;8.390;2023-11-19T03:42:36;0.50;;;0.50;;
7338;SDS011;33747;49.524;8.390;2023-11-19T03:45:02;0.50;;;0.50;;
7338;SDS011;33747;49.524;8.390;2023-11-19T03:47:31;0.40;;;0.40;;
7338;SDS011;33747;49.524;8.390;2023-11-19T03:49:56;0.50;;;0.50;;
7338;SDS011;33747;49.524;8.390;2023-11-19T03:52:21;1.20;;;0.60;;
7338;SDS011;33747;49.524;8.390;2023-11-19T03:54:47;0.50;;;0.50;;
7338;SDS011;33747;49.524;8.390;2023-11-19T03:57:12;1.02;;;0.52;;
7338;SDS011;33747;49.524;8.390;2023-11-19T03:59:38;0.40;;;0.40;;
7338;SDS011;33747;49.524;8.390;2023-11-19T04:02:04;0.40;;;0.40;;
7338;SDS011;33747;49.524;8.390;2023-11-19T04:04:29;1.50;;;0.70;;
7338;SDS011;33747;49.524;8.390;2023-11-19T04:06:55;0.70;;;0.70;;
7338;SDS011;33747;49.524;8.390;2023-11-19T04:09:20;0.60;;;0.60;;
7338;SDS011;33747;49.524;8.390;2023-11-19T04:11:46;3.40;;;0.70;;
7338;SDS011;33747;49.524;8.390;2023-11-19T04:14:14;0.50;;;0.50;;
7338;SDS011;33747;49.524;8.390;2023-11-19T04:16:40;1.60;;;0.80;;
7338;SDS011;33747;49.524;8.390;2023-11-19T04:19:05;3.28;;;1.00;;
7338;SDS011;33747;49.524;8.390;2023-11-19T04:21:31;0.65;;;0.60;;
7338;SDS011;33747;49.524;8.390;2023-11-19T04:23:57;0.50;;;0.50;;
7338;SDS011;33747;49.524;8.390;2023-11-19T04:26:22;0.63;;;0.63;;
7338;SDS011;33747;49.524;8.390;2023-11-19T04:28:47;1.00;;;0.98;;
7338;SDS011;33747;49.524;8.390;2023-11-19T04:31:14;2.05;;;0.90;;
7338;SDS011;33747;49.524;8.390;2023-11-19T04:33:41;0.85;;;0.85;;
7338;SDS011;33747;49.524;8.390;2023-11-19T04:36:06;3.10;;;0.85;;
7338;SDS011;33747;49.524;8.390;2023-11-19T04:38:32;0.80;;;0.80;;
7338;SDS011;33747;49.524;8.390;2023-11-19T04:40:57;2.45;;;0.60;;
7338;SDS011;33747;49.524;8.390;2023-11-19T04:43:23;0.60;;;0.60;;
7338;SDS011;33747;49.524;8.390;2023-11-19T04:45:48;1.40;;;0.65;;
7338;SDS011;33747;49.524;8.390;2023-11-19T04:48:13;0.75;;;0.75;;
7338;SDS011;33747;49.524;8.390;2023-11-19T04:50:39;0.80;;;0.80;;
7338;SDS011;33747;49.524;8.390;2023-11-19T04:53:04;0.90;;;0.90;;
7338;SDS011;33747;49.524;8.390;2023-11-19T04:55:30;1.55;;;0.70;;
7338;SDS011;33747;49.524;8.390;2023-11-19T04:57:55;2.17;;;0.75;;
7338;SDS011;33747;49.524;8.390;2023-11-19T05:00:21;1.15;;;0.80;;
7338;SDS011;33747;49.524;8.390;2023-11-19T05:02:47;0.80;;;0.80;;
7338;SDS011;33747;49.524;8.390;2023-11-19T05:05:12;2.33;;;0.93;;
7338;SDS011;33747;49.524;8.390;2023-11-19T05:07:37;0.82;;;0.68;;
7338;SDS011;33747;49.524;8.390;2023-11-19T05:10:03;1.40;;;1.02;;
7338;SDS011;33747;49.524;8.390;2023-11-19T05:12:29;1.08;;;0.60;;
7338;SDS011;33747;49.524;8.390;2023-11-19T05:14:54;0.77;;;0.77;;
7338;SDS011;33747;49.524;8.390;2023-11-19T05:17:20;0.60;;;0.60;;
7338;SDS011;33747;49.524;8.390;2023-11-19T05:19:45;1.15;;;0.90;;
7338;SDS011;33747;49.524;8.390;2023-11-19T05:22:12;0.85;;;0.70;;
7338;SDS011;33747;49.524;8.390;2023-11-19T05:24:38;3.90;;;0.80;;
7338;SDS011;33747;49.524;8.390;2023-11-19T05:27:04;3.20;;;0.85;;
7338;SDS011;33747;49.524;8.390;2023-11-19T05:29:29;1.40;;;0.90;;
7338;SDS011;33747;49.524;8.390;2023-11-19T05:31:55;1.48;;;0.88;;
7338;SDS011;33747;49.524;8.390;2023-11-19T05:34:20;1.35;;;0.95;;
7338;SDS011;33747;49.524;8.390;2023-11-19T05:36:46;1.60;;;1.00;;
7338;SDS011;33747;49.524;8.390;2023-11-19T05:39:11;1.60;;;0.70;;
7338;SDS011;33747;49.524;8.390;2023-11-19T05:41:37;2.10;;;0.88;;
7338;SDS011;33747;49.524;8.390;2023-11-19T05:44:02;4.13;;;0.90;;
7338;SDS011;33747;49.524;8.390;2023-11-19T05:46:27;0.77;;;0.77;;
7338;SDS011;33747;49.524;8.390;2023-11-19T05:48:53;2.15;;;0.98;;
7338;SDS011;33747;49.524;8.390;2023-11-19T05:51:18;1.67;;;0.93;;
7338;SDS011;33747;49.524;8.390;2023-11-19T05:53:44;3.28;;;0.93;;
7338;SDS011;33747;49.524;8.390;2023-11-19T05:56:15;1.55;;;1.00;;
7338;SDS011;33747;49.524;8.390;2023-11-19T05:58:41;0.85;;;0.85;;
7338;SDS011;33747;49.524;8.390;2023-11-19T06:01:06;5.55;;;0.90;;
7338;SDS011;33747;49.524;8.390;2023-11-19T06:03:32;2.55;;;1.27;;
7338;SDS011;33747;49.524;8.390;2023-11-19T06:05:58;0.73;;;0.73;;
7338;SDS011;33747;49.524;8.390;2023-11-19T06:08:23;1.83;;;0.80;;
7338;SDS011;33747;49.524;8.390;2023-11-19T06:10:49;1.33;;;0.77;;
7338;SDS011;33747;49.524;8.390;2023-11-19T06:13:17;2.22;;;0.98;;
7338;SDS011;33747;49.524;8.390;2023-11-19T06:15:42;1.95;;;1.40;;
7338;SDS011;33747;49.524;8.390;2023-11-19T06:18:08;1.25;;;0.98;;
7338;SDS011;33747;49.524;8.390;2023-11-19T06:20:33;3.45;;;1.10;;
7338;SDS011;33747;49.524;8.390;2023-11-19T06:22:59;1.20;;;0.95;;
7338;SDS011;33747;49.524;8.390;2023-11-19T06:25:25;1.10;;;0.98;;
7338;SDS011;33747;49.524;8.390;2023-11-19T06:27:50;0.90;;;0.90;;
7338;SDS011;33747;49.524;8.390;2023-11-19T06:30:17;1.10;;;1.00;;
7338;SDS011;33747;49.524;8.390;2023-11-19T06:32:42;3.70;;;1.38;;
7338;SDS011;33747;49.524;8.390;2023-11-19T06:35:08;1.15;;;0.70;;
7338;SDS011;33747;49.524;8.390;2023-11-19T06:37:34;1.48;;;1.00;;
7338;SDS011;33747;49.524;8.390;2023-11-19T06:40:00;1.20;;;1.05;;
7338;SDS011;33747;49.524;8.390;2023-11-19T06:42:25;0.98;;;0.95;;
7338;SDS011;33747;49.524;8.390;2023-11-19T06:44:51;1.20;;;0.85;;
7338;SDS011;33747;49.524;8.390;2023-11-19T06:47:16;1.75;;;1.10;;
7338;SDS011;33747;49.524;8.390;2023-11-19T06:49:45;1.00;;;1.00;;
7338;SDS011;33747;49.524;8.390;2023-11-19T06:52:10;1.40;;;0.93;;
7338;SDS011;33747;49.524;8.390;2023-11-19T06:54:37;1.88;;;1.20;;
7338;SDS011;33747;49.524;8.390;2023-11-19T06:57:03;1.13;;;0.95;;
7338;SDS011;33747;49.524;8.390;2023-11-19T06:59:30;1.38;;;0.82;;
7338;SDS011;33747;49.524;8.390;2023-11-19T07:01:55;1.00;;;0.90;;
7338;SDS011;33747;49.524;8.390;2023-11-19T07:04:21;1.60;;;1.10;;
7338;SDS011;33747;49.524;8.390;2023-11-19T07:06:46;1.35;;;0.90;;
7338;SDS011;33747;49.524;8.390;2023-11-19T07:09:13;3.30;;;1.08;;
7338;SDS011;33747;49.524;8.390;2023-11-19T07:11:39;1.23;;;0.93;;
7338;SDS011;33747;49.524;8.390;2023-11-19T07:14:05;5.30;;;1.00;;
7338;SDS011;33747;49.524;8.390;2023-11-19T07:16:34;2.10;;;0.80;;
7338;SDS011;33747;49.524;8.390;2023-11-19T07:19:00;3.33;;;1.60;;
7338;SDS011;33747;49.524;8.390;2023-11-19T07:21:26;2.17;;;1.23;;
7338;SDS011;33747;49.524;8.390;2023-11-19T07:23:53;3.30;;;1.50;;
7338;SDS011;33747;49.524;8.390;2023-11-19T07:26:18;2.75;;;1.40;;
7338;SDS011;33747;49.524;8.390;2023-11-19T07:28:44;2.15;;;1.33;;
7338;SDS011;33747;49.524;8.390;2023-11-19T07:31:10;2.88;;;1.23;;
7338;SDS011;33747;49.524;8.390;2023-11-19T07:33:35;4.47;;;1.23;;
7338;SDS011;33747;49.524;8.390;2023-11-19T07:36:01;1.70;;;0.85;;
7338;SDS011;33747;49.524;8.390;2023-11-19T07:38:26;4.57;;;1.17;;
7338;SDS011;33747;49.524;8.390;2023-11-19T07:40:52;1.23;;;0.90;;
7338;SDS011;33747;49.524;8.390;2023-11-19T07:43:17;1.30;;;1.10;;
7338;SDS011;33747;49.524;8.390;2023-11-19T07:45:42;4.90;;;1.00;;
7338;SDS011;33747;49.524;8.390;2023-11-19T07:48:11;6.15;;;1.38;;
7338;SDS011;33747;49.524;8.390;2023-11-19T07:50:38;1.45;;;1.00;;
7338;SDS011;33747;49.524;8.390;2023-11-19T07:53:05;2.90;;;1.10;;
7338;SDS011;33747;49.524;8.390;2023-11-19T07:55:31;3.03;;;1.20;;
7338;SDS011;33747;49.524;8.390;2023-11-19T07:57:56;2.67;;;0.90;;
7338;SDS011;33747;49.524;8.390;2023-11-19T08:00:22;1.75;;;1.08;;
7338;SDS011;33747;49.524;8.390;2023-11-19T08:02:47;2.30;;;1.13;;
7338;SDS011;33747;49.524;8.390;2023-11-19T08:05:13;1.20;;;0.75;;
7338;SDS011;33747;49.524;8.390;2023-11-19T08:07:38;1.35;;;0.80;;
7338;SDS011;33747;49.524;8.390;2023-11-19T08:10:04;3.55;;;2.20;;
7338;SDS011;33747;49.524;8.390;2023-11-19T08:12:30;4.20;;;1.20;;
7338;SDS011;33747;49.524;8.390;2023-11-19T08:14:55;4.35;;;1.02;;
7338;SDS011;33747;49.524;8.390;2023-11-19T08:17:23;3.85;;;0.90;;
7338;SDS011;33747;49.524;8.390;2023-11-19T08:19:48;1.40;;;0.80;;
7338;SDS011;33747;49.524;8.390;2023-11-19T08:22:14;1.83;;;0.80;;
7338;SDS011;33747;49.524;8.390;2023-11-19T08:24:39;0.80;;;0.80;;
7338;SDS011;33747;49.524;8.390;2023-11-19T08:27:05;1.00;;;0.90;;
7338;SDS011;33747;49.524;8.390;2023-11-19T08:29:30;1.15;;;0.90;;
7338;SDS011;33747;49.524;8.390;2023-11-19T08:31:55;1.23;;;0.80;;
7338;SDS011;33747;49.524;8.390;2023-11-19T08:34:21;0.80;;;0.80;;
7338;SDS011;33747;49.524;8.390;2023-11-19T08:36:49;1.40;;;1.05;;
7338;SDS011;33747;49.524;8.390;2023-11-19T08:39:15;1.75;;;1.27;;
7338;SDS011;33747;49.524;8.390;2023-11-19T08:41:40;7.13;;;1.00;;
7338;SDS011;33747;49.524;8.390;2023-11-19T08:44:06;2.95;;;1.20;;
7338;SDS011;33747;49.524;8.390;2023-11-19T08:46:32;2.38;;;0.73;;
7338;SDS011;33747;49.524;8.390;2023-11-19T08:48:57;1.13;;;0.90;;
7338;SDS011;33747;49.524;8.390;2023-11-19T08:51:23;2.45;;;1.00;;
7338;SDS011;33747;49.524;8.390;2023-11-19T08:53:49;3.40;;;1.05;;
7338;SDS011;33747;49.524;8.390;2023-11-19T08:56:15;3.60;;;0.90;;
7338;SDS011;33747;49.524;8.390;2023-11-19T08:58:40;1.83;;;1.30;;
7338;SDS011;33747;49.524;8.390;2023-11-19T09:01:05;1.77;;;1.00;;
7338;SDS011;33747;49.524;8.390;2023-11-19T09:03:31;3.08;;;1.30;;
7338;SDS011;33747;49.524;8.390;2023-11-19T09:05:57;5.25;;;1.20;;
7338;SDS011;33747;49.524;8.390;2023-11-19T09:08:22;1.35;;;1.00;;
7338;SDS011;33747;49.524;8.390;2023-11-19T09:10:47;3.42;;;1.10;;
7338;SDS011;33747;49.524;8.390;2023-11-19T09:13:13;3.95;;;0.93;;
7338;SDS011;33747;49.524;8.390;2023-11-19T09:15:38;4.95;;;1.33;;
7338;SDS011;33747;49.524;8.390;2023-11-19T09:18:04;3.53;;;1.40;;
7338;SDS011;33747;49.524;8.390;2023-11-19T09:20:29;2.22;;;0.95;;
7338;SDS011;33747;49.524;8.390;2023-11-19T09:23:02;3.70;;;1.33;;
7338;SDS011;33747;49.524;8.390;2023-11-19T09:25:28;2.90;;;1.17;;
7338;SDS011;33747;49.524;8.390;2023-11-19T09:27:53;2.13;;;1.02;;
7338;SDS011;33747;49.524;8.390;2023-11-19T09:30:19;7.93;;;1.20;;
7338;SDS011;33747;49.524;8.390;2023-11-19T09:32:44;3.38;;;1.17;;
7338;SDS011;33747;49.524;8.390;2023-11-19T09:35:09;4.55;;;1.30;;
7338;SDS011;33747;49.524;8.390;2023-11-19T09:37:38;1.83;;;1.20;;
7338;SDS011;33747;49.524;8.390;2023-11-19T09:40:04;2.42;;;1.25;;
7338;SDS011;33747;49.524;8.390;2023-11-19T09:42:30;3.92;;;1.17;;
7338;SDS011;33747;49.524;8.390;2023-11-19T09:44:57;1.00;;;1.00;;
7338;SDS011;33747;49.524;8.390;2023-11-19T09:47:24;2.58;;;1.25;;
7338;SDS011;33747;49.524;8.390;2023-11-19T09:49:50;2.42;;;1.00;;
7338;SDS011;33747;49.524;8.390;2023-11-19T09:52:16;1.42;;;0.82;;
7338;SDS011;33747;49.524;8.390;2023-11-19T09:54:41;4.78;;;1.40;;
7338;SDS011;33747;49.524;8.390;2023-11-19T09:57:06;2.25;;;1.45;;
7338;SDS011;33747;49.524;8.390;2023-11-19T09:59:32;2.88;;;1.23;;
7338;SDS011;33747;49.524;8.390;2023-11-19T10:01:58;5.93;;;1.48;;
7338;SDS011;33747;49.524;8.390;2023-11-19T10:04:24;1.92;;;1.08;;
7338;SDS011;33747;49.524;8.390;2023-11-19T10:06:51;4.55;;;1.33;;
7338;SDS011;33747;49.524;8.390;2023-11-19T10:09:16;2.15;;;1.10;;
7338;SDS011;33747;49.524;8.390;2023-11-19T10:11:42;4.93;;;1.40;;
7338;SDS011;33747;49.524;8.390;2023-11-19T10:14:07;2.38;;;1.15;;
7338;SDS011;33747;49.524;8.390;2023-11-19T10:16:34;3.30;;;1.50;;
7338;SDS011;33747;49.524;8.390;2023-11-19T10:18:59;2.42;;;1.33;;
7338;SDS011;33747;49.524;8.390;2023-11-19T10:21:25;3.67;;;1.30;;
7338;SDS011;33747;49.524;8.390;2023-11-19T10:23:51;3.75;;;1.10;;
7338;SDS011;33747;49.524;8.390;2023-11-19T10:26:22;4.90;;;1.38;;
7338;SDS011;33747;49.524;8.390;2023-11-19T10:28:48;3.75;;;1.63;;
7338;SDS011;33747;49.524;8.390;2023-11-19T10:31:14;2.65;;;1.40;;
7338;SDS011;33747;49.524;8.390;2023-11-19T10:33:40;6.53;;;1.42;;
7338;SDS011;33747;49.524;8.390;2023-11-19T10:36:05;5.90;;;1.77;;
7338;SDS011;33747;49.524;8.390;2023-11-19T10:38:31;4.88;;;2.42;;
7338;SDS011;33747;49.524;8.390;2023-11-19T10:40:57;5.55;;;1.67;;
7338;SDS011;33747;49.524;8.390;2023-11-19T10:43:23;2.50;;;1.45;;
7338;SDS011;33747;49.524;8.390;2023-11-19T10:45:48;4.30;;;1.95;;
7338;SDS011;33747;49.524;8.390;2023-11-19T10:48:14;8.20;;;1.88;;
7338;SDS011;33747;49.524;8.390;2023-11-19T10:50:40;3.67;;;1.30;;
7338;SDS011;33747;49.524;8.390;2023-11-19T10:53:07;7.15;;;2.00;;
7338;SDS011;33747;49.524;8.390;2023-11-19T10:55:34;3.92;;;2.22;;
7338;SDS011;33747;49.524;8.390;2023-11-19T10:58:05;5.10;;;1.40;;
7338;SDS011;33747;49.524;8.390;2023-11-19T11:03:05;4.57;;;1.63;;
7338;SDS011;33747;49.524;8.390;2023-11-19T11:05:35;4.00;;;1.20;;
7338;SDS011;33747;49.524;8.390;2023-11-19T11:08:02;6.63;;;1.38;;
7338;SDS011;33747;49.524;8.390;2023-11-19T11:10:29;4.15;;;1.13;;
7338;SDS011;33747;49.524;8.390;2023-11-19T11:12:58;4.65;;;1.30;;
7338;SDS011;33747;49.524;8.390;2023-11-19T11:15:26;2.75;;;1.23;;
7338;SDS011;33747;49.524;8.390;2023-11-19T11:17:54;2.92;;;1.70;;
7338;SDS011;33747;49.524;8.390;2023-11-19T11:20:24;4.97;;;1.10;;
7338;SDS011;33747;49.524;8.390;2023-11-19T11:22:55;3.85;;;1.50;;
7338;SDS011;33747;49.524;8.390;2023-11-19T11:25:33;6.35;;;1.15;;
7338;SDS011;33747;49.524;8.390;2023-11-19T11:33:44;7.63;;;1.50;;
7338;SDS011;33747;49.524;8.390;2023-11-19T11:36:22;4.55;;;1.50;;
7338;SDS011;33747;49.524;8.390;2023-11-19T11:38:48;4.63;;;1.77;;
7338;SDS011;33747;49.524;8.390;2023-11-19T11:41:15;2.75;;;1.45;;
7338;SDS011;33747;49.524;8.390;2023-11-19T11:43:51;2.75;;;1.77;;
7338;SDS011;33747;49.524;8.390;2023-11-19T11:49:01;4.82;;;1.83;;
7338;SDS011;33747;49.524;8.390;2023-11-19T11:54:11;4.97;;;1.33;;
7338;SDS011;33747;49.524;8.390;2023-11-19T12:02:10;2.97;;;1.33;;
7338;SDS011;33747;49.524;8.390;2023-11-19T12:04:37;4.93;;;1.90;;
7338;SDS011;33747;49.524;8.390;2023-11-19T12:07:06;5.18;;;2.70;;
7338;SDS011;33747;49.524;8.390;2023-11-19T12:09:42;3.92;;;2.22;;
7338;SDS011;33747;49.524;8.390;2023-11-19T12:12:18;7.60;;;1.70;;
7338;SDS011;33747;49.524;8.390;2023-11-19T12:20:09;5.28;;;2.20;;
7338;SDS011;33747;49.524;8.390;2023-11-19T12:22:39;6.35;;;1.98;;
7338;SDS011;33747;49.524;8.390;2023-11-19T12:25:05;5.03;;;2.00;;
7338;SDS011;33747;49.524;8.390;2023-11-19T12:27:32;8.95;;;1.92;;
7338;SDS011;33747;49.524;8.390;2023-11-19T12:29:59;7.10;;;1.65;;
7338;SDS011;33747;49.524;8.390;2023-11-19T12:32:24;5.93;;;1.55;;
7338;SDS011;33747;49.524;8.390;2023-11-19T12:34:50;5.75;;;2.20;;
7338;SDS011;33747;49.524;8.390;2023-11-19T12:37:15;7.15;;;1.90;;
7338;SDS011;33747;49.524;8.390;2023-11-19T12:39:40;9.55;;;1.90;;
7338;SDS011;33747;49.524;8.390;2023-11-19T12:42:06;4.22;;;1.65;;
7338;SDS011;33747;49.524;8.390;2023-11-19T12:44:31;2.90;;;1.08;;
7338;SDS011;33747;49.524;8.390;2023-11-19T12:46:59;4.80;;;1.90;;
7338;SDS011;33747;49.524;8.390;2023-11-19T12:49:26;7.65;;;4.03;;
7338;SDS011;33747;49.524;8.390;2023-11-19T12:51:51;5.90;;;2.85;;
7338;SDS011;33747;49.524;8.390;2023-11-19T12:54:17;9.65;;;2.72;;
7338;SDS011;33747;49.524;8.390;2023-11-19T12:56:51;7.32;;;2.20;;
7338;SDS011;33747;49.524;8.390;2023-11-19T12:59:18;8.48;;;2.17;;
7338;SDS011;33747;49.524;8.390;2023-11-19T13:01:59;5.30;;;1.88;;
7338;SDS011;33747;49.524;8.390;2023-11-19T13:04:28;3.45;;;1.80;;
7338;SDS011;33747;49.524;8.390;2023-11-19T13:06:55;7.95;;;2.67;;
7338;SDS011;33747;49.524;8.390;2023-11-19T13:09:25;6.53;;;1.92;;
7338;SDS011;33747;49.524;8.390;2023-11-19T13:11:51;8.75;;;2.22;;
7338;SDS011;33747;49.524;8.390;2023-11-19T13:14:17;4.90;;;2.17;;
7338;SDS011;33747;49.524;8.390;2023-11-19T13:16:43;6.47;;;2.13;;
7338;SDS011;33747;49.524;8.390;2023-11-19T13:19:10;7.22;;;2.10;;
7338;SDS011;33747;49.524;8.390;2023-11-19T13:21:36;3.92;;;1.30;;
7338;SDS011;33747;49.524;8.390;2023-11-19T13:24:02;6.07;;;1.50;;
7338;SDS011;33747;49.524;8.390;2023-11-19T13:26:27;5.43;;;1.63;;
7338;SDS011;33747;49.524;8.390;2023-11-19T13:28:52;3.25;;;1.40;;
7338;SDS011;33747;49.524;8.390;2023-11-19T13:31:18;8.27;;;2.00;;
7338;SDS011;33747;49.524;8.390;2023-11-19T13:33:43;4.93;;;1.33;;
7338;SDS011;33747;49.524;8.390;2023-11-19T13:36:09;7.20;;;1.60;;
7338;SDS011;33747;49.524;8.390;2023-11-19T13:38:34;4.88;;;1.50;;
7338;SDS011;33747;49.524;8.390;2023-11-19T13:41:01;5.72;;;1.17;;
7338;SDS011;33747;49.524;8.390;2023-11-19T13:43:26;4.72;;;1.65;;
7338;SDS011;33747;49.524;8.390;2023-11-19T13:45:53;3.15;;;1.50;;
7338;SDS011;33747;49.524;8.390;2023-11-19T13:48:19;6.80;;;1.50;;
7338;SDS011;33747;49.524;8.390;2023-11-19T13:50:44;2.08;;;1.20;;
7338;SDS011;33747;49.524;8.390;2023-11-19T13:53:10;6.38;;;1.50;;
7338;SDS011;33747;49.524;8.390;2023-11-19T13:55:35;3.75;;;1.52;;
7338;SDS011;33747;49.524;8.390;2023-11-19T13:58:01;6.00;;;1.60;;
7338;SDS011;33747;49.524;8.390;2023-11-19T14:00:26;4.20;;;1.42;;
7338;SDS011;33747;49.524;8.390;2023-11-19T14:02:51;3.25;;;1.42;;
7338;SDS011;33747;49.524;8.390;2023-11-19T14:05:17;2.90;;;1.40;;
7338;SDS011;33747;49.524;8.390;2023-11-19T14:07:43;7.63;;;1.60;;
7338;SDS011;33747;49.524;8.390;2023-11-19T14:10:08;5.40;;;1.52;;
7338;SDS011;33747;49.524;8.390;2023-11-19T14:12:34;4.35;;;1.25;;
7338;SDS011;33747;49.524;8.390;2023-11-19T14:15:00;6.35;;;1.50;;
7338;SDS011;33747;49.524;8.390;2023-11-19T14:17:26;4.32;;;1.30;;
7338;SDS011;33747;49.524;8.390;2023-11-19T14:19:51;8.95;;;1.90;;
7338;SDS011;33747;49.524;8.390;2023-11-19T14:22:17;2.60;;;1.08;;
7338;SDS011;33747;49.524;8.390;2023-11-19T14:24:42;3.15;;;1.23;;
7338;SDS011;33747;49.524;8.390;2023-11-19T14:27:08;5.30;;;1.17;;
7338;SDS011;33747;49.524;8.390;2023-11-19T14:29:34;3.85;;;1.10;;
7338;SDS011;33747;49.524;8.390;2023-11-19T14:32:00;6.03;;;1.55;;
7338;SDS011;33747;49.524;8.390;2023-11-19T14:34:25;4.75;;;1.30;;
7338;SDS011;33747;49.524;8.390;2023-11-19T14:36:51;4.10;;;1.80;;
7338;SDS011;33747;49.524;8.390;2023-11-19T14:39:17;8.63;;;2.00;;
7338;SDS011;33747;49.524;8.390;2023-11-19T14:41:42;5.63;;;1.75;;
7338;SDS011;33747;49.524;8.390;2023-11-19T14:44:09;7.97;;;2.30;;
7338;SDS011;33747;49.524;8.390;2023-11-19T14:46:34;5.38;;;1.33;;
7338;SDS011;33747;49.524;8.390;2023-11-19T14:49:00;9.98;;;2.05;;
7338;SDS011;33747;49.524;8.390;2023-11-19T14:51:25;6.63;;;1.55;;
7338;SDS011;33747;49.524;8.390;2023-11-19T14:53:50;3.92;;;1.35;;
7338;SDS011;33747;49.524;8.390;2023-11-19T14:56:16;7.72;;;1.73;;
7338;SDS011;33747;49.524;8.390;2023-11-19T14:58:41;7.90;;;1.85;;
7338;SDS011;33747;49.524;8.390;2023-11-19T15:01:11;7.53;;;1.80;;
7338;SDS011;33747;49.524;8.390;2023-11-19T15:03:37;3.92;;;2.10;;
7338;SDS011;33747;49.524;8.390;2023-11-19T15:06:02;10.52;;;1.80;;
7338;SDS011;33747;49.524;8.390;2023-11-19T15:08:28;4.68;;;2.15;;
7338;SDS011;33747;49.524;8.390;2023-11-19T15:10:53;7.72;;;1.50;;
7338;SDS011;33747;49.524;8.390;2023-11-19T15:13:18;5.10;;;1.63;;
7338;SDS011;33747;49.524;8.390;2023-11-19T15:15:44;3.47;;;1.40;;
7338;SDS011;33747;49.524;8.390;2023-11-19T15:18:09;5.20;;;1.60;;
7338;SDS011;33747;49.524;8.390;2023-11-19T15:20:35;3.67;;;1.80;;